createdAt,value
2017-06-01T00:00:26.495Z,12.27
2017-06-01T00:02:54.739Z,11.00
2017-06-01T00:05:22.944Z,14.10
2017-06-01T00:07:51.179Z,18.53
2017-06-01T00:10:19.394Z,13.03
2017-06-01T00:12:48.327Z,16.87
2017-06-01T00:15:16.530Z,11.37
2017-06-01T00:17:44.742Z,16.15
2017-06-01T00:20:13.019Z,10.77
2017-06-01T00:22:41.331Z,13.17
2017-06-01T00:25:09.544Z,15.70
2017-06-01T00:27:37.838Z,12.87
2017-06-01T00:30:06.066Z,9.88
2017-06-01T00:32:34.309Z,14.25
2017-06-01T00:35:02.563Z,13.42
2017-06-01T00:37:30.778Z,11.63
2017-06-01T00:39:58.987Z,15.43
2017-06-01T00:42:27.217Z,15.93
2017-06-01T00:44:55.437Z,14.33
2017-06-01T00:47:23.700Z,15.60
2017-06-01T00:49:51.903Z,11.87
2017-06-01T00:52:20.116Z,10.50
2017-06-01T00:54:48.378Z,11.50
2017-06-01T00:57:16.619Z,16.82
2017-06-01T00:59:44.898Z,10.78
2017-06-01T01:02:13.120Z,15.48
2017-06-01T01:04:41.322Z,11.35
2017-06-01T01:07:09.699Z,11.72
2017-06-01T01:09:38.011Z,18.17
2017-06-01T01:12:06.249Z,9.12
2017-06-01T01:14:34.439Z,9.62
2017-06-01T01:17:02.735Z,11.77
2017-06-01T01:19:30.959Z,13.50
2017-06-01T01:21:59.171Z,10.00
2017-06-01T01:24:27.410Z,14.52
2017-06-01T01:26:55.629Z,14.55
2017-06-01T01:29:23.974Z,16.57
2017-06-01T01:31:52.191Z,14.65
2017-06-01T01:34:20.403Z,13.77
2017-06-01T01:36:48.614Z,13.68
2017-06-01T01:39:16.841Z,12.70
2017-06-01T01:41:45.072Z,14.95
2017-06-01T01:44:13.339Z,12.42
2017-06-01T01:46:41.559Z,14.48
2017-06-01T01:49:09.807Z,9.68
2017-06-01T01:51:38.011Z,22.72
2017-06-01T01:54:06.238Z,16.12
2017-06-01T01:56:34.520Z,11.17
2017-06-01T01:59:02.795Z,10.93
2017-06-01T02:01:31.075Z,13.45
2017-06-01T02:03:59.343Z,14.20
2017-06-01T02:06:27.555Z,14.35
2017-06-01T02:08:55.792Z,11.03
2017-06-01T02:11:23.990Z,13.07
2017-06-01T02:13:52.199Z,9.83
2017-06-01T02:16:20.434Z,13.32
2017-06-01T02:18:48.663Z,14.68
2017-06-01T02:21:16.963Z,11.25
2017-06-01T02:23:45.187Z,16.30
2017-06-01T02:26:13.403Z,10.36
2017-06-01T02:28:41.630Z,17.73
2017-06-01T02:31:09.864Z,12.43
2017-06-01T02:33:38.078Z,15.58
2017-06-01T02:36:06.300Z,13.77
2017-06-01T02:38:34.520Z,13.50
2017-06-01T02:41:02.860Z,14.83
2017-06-01T02:43:31.066Z,12.47
2017-06-01T02:45:59.308Z,12.10
2017-06-01T02:48:27.710Z,13.15
2017-06-01T02:50:55.859Z,11.63
2017-06-01T02:53:24.133Z,14.83
2017-06-01T02:55:52.407Z,10.15
2017-06-01T02:58:20.699Z,10.67
2017-06-01T03:00:48.959Z,16.38
2017-06-01T03:03:17.161Z,14.32
2017-06-01T03:05:45.406Z,11.38
2017-06-01T03:08:13.683Z,12.13
2017-06-01T03:10:41.959Z,12.14
2017-06-01T03:13:10.176Z,12.25
2017-06-01T03:15:38.379Z,13.83
2017-06-01T03:18:06.612Z,13.32
2017-06-01T03:20:34.807Z,14.67
2017-06-01T03:23:03.108Z,13.55
2017-06-01T03:25:31.307Z,11.90
2017-06-01T03:27:59.533Z,14.02
2017-06-01T03:30:27.728Z,9.72
2017-06-01T03:32:56.022Z,11.83
2017-06-01T03:35:24.307Z,12.70
2017-06-01T03:37:52.511Z,13.17
2017-06-01T03:40:20.731Z,13.35
2017-06-01T03:42:48.954Z,11.77
2017-06-01T03:45:17.153Z,14.85
2017-06-01T03:47:45.475Z,12.18
2017-06-01T03:50:13.691Z,13.25
2017-06-01T03:52:41.918Z,11.67
2017-06-01T03:55:10.194Z,11.03
2017-06-01T03:57:38.510Z,13.08
2017-06-01T04:00:06.747Z,12.13
2017-06-01T04:02:35.038Z,13.32
2017-06-01T04:05:03.303Z,11.15
2017-06-01T04:07:31.511Z,9.32
2017-06-01T04:09:59.724Z,13.63
2017-06-01T04:12:27.939Z,12.07
2017-06-01T04:14:56.143Z,10.50
2017-06-01T04:17:24.445Z,14.18
2017-06-01T04:19:52.641Z,13.48
2017-06-01T04:22:20.859Z,13.02
2017-06-01T04:24:49.111Z,10.15
2017-06-01T04:27:17.320Z,12.92
2017-06-01T04:29:45.537Z,15.23
2017-06-01T04:32:13.816Z,13.13
2017-06-01T04:34:42.087Z,15.20
2017-06-01T04:37:10.363Z,10.00
2017-06-01T04:39:38.603Z,12.42
2017-06-01T04:42:06.824Z,16.75
2017-06-01T04:44:35.103Z,9.37
2017-06-01T04:47:03.367Z,10.50
2017-06-01T04:49:31.638Z,16.00
2017-06-01T04:51:59.923Z,11.58
2017-06-01T04:54:28.195Z,12.03
2017-06-01T04:56:56.567Z,10.73
2017-06-01T04:59:24.946Z,9.73
2017-06-01T05:01:53.155Z,9.43
2017-06-01T05:04:21.381Z,10.43
2017-06-01T05:06:49.688Z,12.27
2017-06-01T05:09:17.951Z,7.23
2017-06-01T05:11:46.160Z,11.93
2017-06-01T05:14:14.406Z,12.08
2017-06-01T05:16:42.665Z,8.93
2017-06-01T05:19:10.928Z,12.78
2017-06-01T05:21:39.303Z,9.40
2017-06-01T05:24:07.706Z,7.63
2017-06-01T05:26:36.075Z,12.32
2017-06-01T05:29:04.359Z,12.67
2017-06-01T05:31:32.627Z,8.80
2017-06-01T05:34:00.943Z,13.18
2017-06-01T05:36:29.194Z,11.15
2017-06-01T05:38:57.428Z,10.45
2017-06-01T05:41:25.744Z,9.37
2017-06-01T05:43:53.967Z,8.44
2017-06-01T05:46:22.171Z,6.87
2017-06-01T05:48:50.463Z,12.43
2017-06-01T05:51:18.739Z,11.58
2017-06-01T05:53:46.971Z,9.38
2017-06-01T05:56:15.207Z,10.50
2017-06-01T05:58:43.431Z,9.40
2017-06-01T06:01:11.660Z,6.72
2017-06-01T06:03:39.873Z,11.53
2017-06-01T06:06:08.199Z,12.38
2017-06-01T06:08:36.663Z,10.38
2017-06-01T06:11:04.940Z,11.68
2017-06-01T06:13:33.306Z,7.93
2017-06-01T06:16:01.514Z,11.80
2017-06-01T06:18:29.764Z,13.98
2017-06-01T06:20:57.226Z,10.87
2017-06-01T06:23:25.529Z,10.25
2017-06-01T06:25:53.816Z,9.72
2017-06-01T06:28:22.058Z,11.17
2017-06-01T06:30:50.393Z,6.24
2017-06-01T06:33:18.595Z,11.35
2017-06-01T06:35:46.811Z,8.85
2017-06-01T06:38:15.017Z,13.30
2017-06-01T06:40:43.322Z,7.90
2017-06-01T06:43:11.566Z,9.33
2017-06-01T06:45:39.833Z,7.35
2017-06-01T06:48:08.116Z,10.22
2017-06-01T06:50:36.316Z,8.50
2017-06-01T06:53:04.593Z,9.67
2017-06-01T06:55:32.796Z,8.10
2017-06-01T06:58:01.039Z,8.87
2017-06-01T07:01:02.667Z,12.27
2017-06-01T07:03:30.866Z,9.40
2017-06-01T07:05:59.156Z,7.52
2017-06-01T07:08:27.451Z,11.15
2017-06-01T07:10:55.815Z,8.98
2017-06-01T07:13:24.036Z,10.98
2017-06-01T07:15:52.253Z,9.47
2017-06-01T07:18:20.520Z,9.28
2017-06-01T07:20:48.876Z,9.58
2017-06-01T07:23:17.091Z,9.47
2017-06-01T07:25:45.350Z,9.33
2017-06-01T07:28:13.619Z,5.97
2017-06-01T07:30:41.936Z,7.88
2017-06-01T07:33:10.179Z,8.92
2017-06-01T07:35:38.495Z,9.62
2017-06-01T07:38:06.723Z,8.60
2017-06-01T07:40:34.936Z,9.93
2017-06-01T07:43:03.151Z,8.83
2017-06-01T07:45:31.408Z,7.42
2017-06-01T07:47:59.735Z,10.77
2017-06-01T07:50:28.010Z,8.37
2017-06-01T07:52:56.254Z,7.87
2017-06-01T07:55:24.502Z,7.55
2017-06-01T07:57:52.801Z,10.20
2017-06-01T08:00:21.034Z,8.02
2017-06-01T08:02:49.271Z,6.14
2017-06-01T08:05:17.563Z,8.08
2017-06-01T08:07:45.763Z,10.72
2017-06-01T08:10:13.975Z,8.97
2017-06-01T08:12:42.227Z,8.42
2017-06-01T08:15:10.447Z,7.80
2017-06-01T08:17:38.827Z,9.70
2017-06-01T08:20:07.115Z,10.15
2017-06-01T08:22:35.356Z,6.00
2017-06-01T08:25:03.602Z,7.35
2017-06-01T08:27:31.814Z,6.83
2017-06-01T08:30:00.039Z,8.68
2017-06-01T08:32:28.379Z,8.85
2017-06-01T08:34:56.627Z,8.92
2017-06-01T08:37:24.856Z,6.25
2017-06-01T08:39:53.090Z,7.52
2017-06-01T08:42:21.379Z,7.80
2017-06-01T08:44:49.601Z,7.83
2017-06-01T08:47:17.864Z,7.73
2017-06-01T08:49:46.085Z,9.50
2017-06-01T08:52:14.337Z,8.47
2017-06-01T08:54:42.549Z,9.87
2017-06-01T08:57:10.145Z,6.62
2017-06-01T08:59:38.372Z,9.10
2017-06-01T09:02:06.583Z,8.27
2017-06-01T09:04:34.800Z,9.48
2017-06-01T09:07:03.120Z,8.27
2017-06-01T09:09:31.375Z,9.54
2017-06-01T09:11:59.596Z,6.80
2017-06-01T09:14:27.828Z,9.36
2017-06-01T09:16:56.251Z,7.75
2017-06-01T09:19:24.479Z,8.00
2017-06-01T09:21:52.763Z,7.72
2017-06-01T09:24:21.059Z,9.03
2017-06-01T09:26:49.315Z,5.28
2017-06-01T09:29:17.559Z,7.82
2017-06-01T09:31:45.873Z,10.62
2017-06-01T09:34:14.139Z,8.38
2017-06-01T09:36:42.419Z,7.30
2017-06-01T09:39:10.631Z,7.83
2017-06-01T09:41:38.857Z,6.85
2017-06-01T09:44:07.062Z,8.18
2017-06-01T09:46:35.304Z,8.25
2017-06-01T09:49:03.523Z,5.32
2017-06-01T09:51:31.863Z,8.22
2017-06-01T09:54:00.066Z,6.98
2017-06-01T09:56:28.281Z,7.15
2017-06-01T09:58:56.587Z,6.45
2017-06-01T10:01:24.864Z,7.70
2017-06-01T10:03:53.091Z,11.40
2017-06-01T10:06:21.307Z,6.88
2017-06-01T10:08:49.508Z,8.13
2017-06-01T10:11:17.728Z,6.77
2017-06-01T10:13:46.036Z,6.60
2017-06-01T10:16:14.288Z,5.88
2017-06-01T10:18:42.487Z,7.22
2017-06-01T10:21:10.701Z,8.60
2017-06-01T10:23:38.937Z,7.60
2017-06-01T10:26:07.157Z,7.52
2017-06-01T10:28:35.371Z,6.30
2017-06-01T10:31:03.591Z,7.87
2017-06-01T10:33:31.851Z,6.66
2017-06-01T10:36:00.079Z,5.78
2017-06-01T10:38:28.286Z,5.44
2017-06-01T10:40:56.519Z,7.50
2017-06-01T10:43:24.850Z,6.52
2017-06-01T10:45:53.083Z,5.60
2017-06-01T10:48:21.299Z,8.87
2017-06-01T10:50:49.716Z,4.15
2017-06-01T10:53:17.927Z,6.40
2017-06-01T10:55:46.211Z,9.02
2017-06-01T10:58:14.441Z,7.15
2017-06-01T11:00:42.766Z,6.67
2017-06-01T11:03:10.971Z,6.63
2017-06-01T11:05:39.199Z,5.75
2017-06-01T11:08:07.423Z,6.42
2017-06-01T11:10:35.755Z,7.27
2017-06-01T11:13:03.985Z,8.67
2017-06-01T11:15:32.195Z,6.98
2017-06-01T11:18:00.415Z,8.18
2017-06-01T11:20:28.635Z,4.88
2017-06-01T11:22:56.883Z,5.32
2017-06-01T11:25:25.195Z,6.06
2017-06-01T11:27:53.424Z,7.03
2017-06-01T11:30:21.645Z,7.72
2017-06-01T11:32:50.026Z,6.33
2017-06-01T11:35:18.298Z,6.06
2017-06-01T11:37:46.687Z,6.45
2017-06-01T11:40:15.076Z,7.80
2017-06-01T11:42:43.331Z,8.03
2017-06-01T11:45:11.603Z,6.67
2017-06-01T11:47:39.867Z,6.28
2017-06-01T11:50:08.159Z,6.18
2017-06-01T11:52:36.411Z,7.83
2017-06-01T11:55:04.620Z,6.04
2017-06-01T11:57:32.843Z,6.53
2017-06-01T12:00:01.147Z,6.85
2017-06-01T12:02:28.622Z,5.42
2017-06-01T12:04:57.015Z,3.84
2017-06-01T12:07:25.375Z,6.33
2017-06-01T12:09:53.647Z,6.55
2017-06-01T12:12:21.913Z,5.65
2017-06-01T12:14:50.243Z,10.47
2017-06-01T12:17:18.547Z,5.55
2017-06-01T12:19:46.740Z,5.86
2017-06-01T12:22:14.956Z,7.05
2017-06-01T12:24:43.165Z,3.08
2017-06-01T12:27:11.389Z,7.15
2017-06-01T12:29:39.603Z,4.90
2017-06-01T12:32:07.911Z,5.52
2017-06-01T12:34:36.187Z,4.93
2017-06-01T12:37:04.476Z,5.94
2017-06-01T12:39:32.747Z,6.50
2017-06-01T12:42:01.093Z,5.26
2017-06-01T12:44:29.435Z,6.52
2017-06-01T12:46:57.643Z,7.36
2017-06-01T12:49:25.864Z,4.27
2017-06-01T12:51:54.126Z,6.13
2017-06-01T12:54:22.367Z,4.72
2017-06-01T12:56:50.633Z,5.52
2017-06-01T12:59:18.954Z,5.05
2017-06-01T13:01:47.188Z,3.98
2017-06-01T13:04:15.403Z,4.68
2017-06-01T13:06:43.687Z,6.38
2017-06-01T13:09:11.952Z,3.42
2017-06-01T13:11:40.255Z,6.90
2017-06-01T13:14:08.531Z,5.58
2017-06-01T13:16:36.777Z,4.85
2017-06-01T13:19:05.040Z,5.55
2017-06-01T13:21:33.266Z,5.20
2017-06-01T13:24:01.579Z,4.88
2017-06-01T13:26:29.796Z,3.70
2017-06-01T13:28:59.073Z,3.17
2017-06-01T13:31:27.306Z,3.80
2017-06-01T13:33:55.637Z,3.68
2017-06-01T13:36:23.898Z,4.37
2017-06-01T13:38:52.102Z,4.82
2017-06-01T13:41:20.376Z,5.97
2017-06-01T13:43:48.660Z,5.45
2017-06-01T13:46:16.878Z,5.50
2017-06-01T13:48:45.194Z,3.30
2017-06-01T13:51:13.504Z,3.60
2017-06-01T13:53:41.756Z,4.20
2017-06-01T13:56:10.006Z,4.10
2017-06-01T13:58:38.233Z,4.12
2017-06-01T14:01:06.454Z,4.22
2017-06-01T14:03:34.684Z,6.10
2017-06-01T14:06:02.903Z,4.28
2017-06-01T14:08:31.162Z,4.30
2017-06-01T14:10:59.455Z,3.58
2017-06-01T14:13:27.731Z,3.67
2017-06-01T14:15:56.007Z,4.68
2017-06-01T14:18:24.247Z,2.37
2017-06-01T14:20:52.544Z,3.60
2017-06-01T14:23:20.768Z,3.17
2017-06-01T14:25:48.979Z,2.20
2017-06-01T14:28:17.191Z,2.80
2017-06-01T14:30:45.432Z,3.27
2017-06-01T14:33:13.640Z,2.58
2017-06-01T14:35:41.883Z,2.97
2017-06-01T14:38:10.088Z,1.80
2017-06-01T14:40:38.299Z,2.42
2017-06-01T14:43:06.529Z,2.77
2017-06-01T14:45:34.726Z,2.50
2017-06-01T14:48:03.037Z,3.07
2017-06-01T14:50:31.230Z,3.08
2017-06-01T14:52:59.487Z,2.93
2017-06-01T14:55:27.862Z,2.52
2017-06-01T14:57:56.128Z,2.28
2017-06-01T15:00:24.335Z,4.72
2017-06-01T15:02:52.689Z,4.60
2017-06-01T15:05:20.892Z,2.30
2017-06-01T15:07:49.176Z,2.05
2017-06-01T15:10:17.578Z,1.97
2017-06-01T15:12:45.791Z,3.23
2017-06-01T15:15:13.994Z,3.07
2017-06-01T15:17:42.248Z,2.96
2017-06-01T15:20:10.452Z,3.70
2017-06-01T15:22:38.751Z,2.05
2017-06-01T15:25:06.984Z,4.15
2017-06-01T15:27:35.274Z,2.58
2017-06-01T15:30:03.684Z,3.00
2017-06-01T15:32:31.899Z,2.68
2017-06-01T15:35:00.198Z,1.60
2017-06-01T15:37:28.523Z,2.26
2017-06-01T15:39:56.729Z,4.62
2017-06-01T15:42:24.960Z,2.43
2017-06-01T15:44:53.219Z,2.32
2017-06-01T15:47:21.428Z,2.00
2017-06-01T15:49:49.638Z,4.16
2017-06-01T15:52:17.919Z,2.70
2017-06-01T15:54:46.199Z,2.00
2017-06-01T15:57:14.413Z,2.98
2017-06-01T15:59:42.740Z,1.80
2017-06-01T16:02:11.017Z,2.80
2017-06-01T16:04:39.315Z,3.30
2017-06-01T16:07:07.570Z,1.23
2017-06-01T16:09:35.779Z,3.25
2017-06-01T16:12:04.078Z,2.57
2017-06-01T16:14:32.407Z,3.65
2017-06-01T16:17:00.676Z,2.98
2017-06-01T16:19:28.932Z,2.25
2017-06-01T16:21:57.133Z,3.80
2017-06-01T16:24:25.401Z,3.08
2017-06-01T16:26:53.630Z,3.07
2017-06-01T16:29:21.838Z,3.22
2017-06-01T16:31:50.133Z,4.38
2017-06-01T16:34:18.408Z,2.80
2017-06-01T16:36:46.611Z,3.23
2017-06-01T16:39:14.862Z,1.98
2017-06-01T16:41:43.074Z,5.27
2017-06-01T16:44:11.371Z,4.34
2017-06-01T16:46:39.557Z,2.93
2017-06-01T16:49:07.852Z,2.40
2017-06-01T16:51:36.077Z,3.35
2017-06-01T16:54:04.287Z,4.38
2017-06-01T16:56:32.504Z,3.72
2017-06-01T16:59:00.712Z,3.00
2017-06-01T17:01:29.052Z,2.53
2017-06-01T17:03:57.366Z,3.53
2017-06-01T17:06:25.664Z,3.30
2017-06-01T17:08:53.878Z,3.62
2017-06-01T17:11:22.116Z,3.12
2017-06-01T17:13:50.326Z,5.18
2017-06-01T17:16:18.538Z,3.23
2017-06-01T17:18:46.776Z,2.52
2017-06-01T17:21:15.028Z,4.48
2017-06-01T17:23:43.245Z,3.35
2017-06-01T17:26:11.452Z,4.34
2017-06-01T17:28:39.647Z,2.87
2017-06-01T17:31:07.914Z,2.40
2017-06-01T17:33:36.152Z,3.60
2017-06-01T17:36:04.367Z,2.02
2017-06-01T17:38:32.634Z,2.28
2017-06-01T17:41:00.146Z,2.55
2017-06-01T17:43:28.430Z,2.80
2017-06-01T17:45:56.886Z,1.60
2017-06-01T17:48:25.126Z,1.68
2017-06-01T17:50:53.351Z,2.52
2017-06-01T17:53:21.597Z,4.23
2017-06-01T17:55:49.852Z,3.57
2017-06-01T17:58:18.058Z,3.33
2017-06-01T18:00:46.308Z,5.03
2017-06-01T18:03:14.523Z,2.00
2017-06-01T18:05:42.736Z,3.57
2017-06-01T18:08:10.192Z,2.22
2017-06-01T18:10:38.411Z,1.92
2017-06-01T18:13:06.646Z,4.18
2017-06-01T18:15:34.869Z,2.40
2017-06-01T18:18:03.125Z,2.48
2017-06-01T18:20:31.368Z,4.45
2017-06-01T18:22:59.587Z,4.57
2017-06-01T18:25:28.911Z,2.97
2017-06-01T18:27:57.135Z,2.60
2017-06-01T18:30:28.981Z,4.28
2017-06-01T18:32:57.263Z,4.20
2017-06-01T18:35:25.482Z,2.83
2017-06-01T18:37:53.721Z,2.80
2017-06-01T18:40:21.919Z,2.63
2017-06-01T18:42:50.168Z,4.85
2017-06-01T18:45:18.403Z,2.93
2017-06-01T18:47:46.694Z,4.73
2017-06-01T18:50:14.899Z,5.37
2017-06-01T18:52:43.121Z,2.80
2017-06-01T18:55:11.439Z,2.95
2017-06-01T18:57:39.675Z,3.48
2017-06-01T19:00:07.983Z,5.80
2017-06-01T19:02:36.278Z,4.64
2017-06-01T19:05:04.513Z,4.05
2017-06-01T19:07:32.753Z,4.43
2017-06-01T19:10:00.951Z,3.08
2017-06-01T19:12:29.263Z,4.87
2017-06-01T19:14:57.495Z,5.03
2017-06-01T19:17:25.706Z,5.57
2017-06-01T19:19:54.006Z,3.58
2017-06-01T19:22:22.249Z,5.62
2017-06-01T19:24:50.451Z,3.28
2017-06-01T19:27:18.715Z,6.98
2017-06-01T19:29:46.984Z,3.82
2017-06-01T19:32:15.201Z,6.87
2017-06-01T19:34:43.420Z,4.47
2017-06-01T19:37:11.645Z,5.72
2017-06-01T19:39:39.866Z,8.37
2017-06-01T19:42:08.156Z,7.48
2017-06-01T19:44:36.389Z,6.23
2017-06-01T19:47:04.702Z,5.68
2017-06-01T19:49:32.951Z,5.55
2017-06-01T19:52:01.162Z,5.32
2017-06-01T19:54:29.384Z,7.83
2017-06-01T19:56:57.614Z,5.70
2017-06-01T19:59:25.836Z,6.67
2017-06-01T20:01:54.151Z,6.73
2017-06-01T20:04:22.427Z,7.60
2017-06-01T20:06:50.639Z,6.42
2017-06-01T20:09:18.887Z,6.68
2017-06-01T20:11:47.112Z,6.85
2017-06-01T20:14:15.339Z,4.53
2017-06-01T20:16:43.596Z,5.82
2017-06-01T20:19:11.847Z,4.27
2017-06-01T20:21:40.055Z,5.34
2017-06-01T20:24:08.279Z,5.05
2017-06-01T20:26:36.696Z,6.75
2017-06-01T20:29:04.913Z,6.83
2017-06-01T20:31:33.170Z,7.80
2017-06-01T20:34:01.392Z,7.62
2017-06-01T20:36:29.650Z,5.45
2017-06-01T20:38:57.878Z,6.17
2017-06-01T20:41:26.108Z,6.15
2017-06-01T20:43:54.327Z,8.38
2017-06-01T20:46:22.610Z,7.88
2017-06-01T20:48:50.827Z,6.73
2017-06-01T20:51:19.063Z,5.73
2017-06-01T20:53:47.324Z,9.65
2017-06-01T20:56:15.617Z,7.32
2017-06-01T20:58:43.988Z,5.92
2017-06-01T21:01:12.245Z,8.08
2017-06-01T21:03:40.519Z,5.70
2017-06-01T21:06:08.976Z,8.35
2017-06-01T21:08:37.184Z,7.95
2017-06-01T21:11:05.436Z,8.60
2017-06-01T21:13:33.769Z,8.00
2017-06-01T21:16:01.976Z,8.63
2017-06-01T21:18:30.269Z,7.12
2017-06-01T21:20:58.487Z,8.50
2017-06-01T21:23:26.692Z,8.07
2017-06-01T21:25:55.011Z,7.98
2017-06-01T21:28:23.226Z,7.10
2017-06-01T21:30:51.443Z,8.28
2017-06-01T21:33:19.650Z,9.35
2017-06-01T21:35:48.017Z,9.35
2017-06-01T21:38:16.247Z,7.83
2017-06-01T21:40:44.487Z,7.43
2017-06-01T21:43:12.715Z,11.30
2017-06-01T21:45:40.920Z,9.28
2017-06-01T21:48:09.129Z,7.25
2017-06-01T21:50:37.442Z,9.24
2017-06-01T21:53:05.663Z,9.63
2017-06-01T21:55:34.014Z,8.65
2017-06-01T21:58:02.303Z,11.20
2017-06-01T22:00:30.515Z,7.63
2017-06-01T22:02:58.718Z,8.86
2017-06-01T22:05:26.940Z,12.60
2017-06-01T22:07:55.176Z,7.92
2017-06-01T22:10:23.600Z,11.00
2017-06-01T22:12:51.830Z,7.85
2017-06-01T22:15:20.150Z,10.66
2017-06-01T22:17:48.385Z,10.92
2017-06-01T22:20:16.607Z,11.90
2017-06-01T22:22:44.964Z,9.63
2017-06-01T22:25:13.322Z,7.97
2017-06-01T22:27:41.585Z,9.12
2017-06-01T22:30:09.802Z,10.30
2017-06-01T22:32:38.048Z,10.57
2017-06-01T22:35:06.497Z,9.66
2017-06-01T22:37:34.803Z,14.12
2017-06-01T22:40:03.051Z,10.48
2017-06-01T22:42:31.289Z,9.03
2017-06-01T22:44:59.618Z,7.78
2017-06-01T22:47:27.832Z,9.42
2017-06-01T22:49:56.048Z,8.48
2017-06-01T22:52:24.282Z,6.80
2017-06-01T22:54:52.512Z,8.60
2017-06-01T22:57:20.745Z,8.40
2017-06-01T22:59:48.950Z,14.13
2017-06-01T23:02:17.232Z,7.58
2017-06-01T23:04:45.530Z,8.47
2017-06-01T23:07:13.791Z,8.48
2017-06-01T23:09:42.011Z,8.62
2017-06-01T23:12:10.257Z,13.00
2017-06-01T23:14:38.509Z,8.80
2017-06-01T23:17:06.739Z,10.08
2017-06-01T23:19:34.973Z,10.48
2017-06-01T23:22:03.265Z,10.08
2017-06-01T23:24:31.528Z,10.77
2017-06-01T23:26:59.792Z,9.40
2017-06-01T23:29:28.021Z,10.33
2017-06-01T23:31:56.339Z,11.90
2017-06-01T23:34:24.548Z,11.87
2017-06-01T23:36:52.913Z,9.18
2017-06-01T23:39:21.143Z,13.87
2017-06-01T23:41:49.365Z,10.80
2017-06-01T23:44:17.609Z,11.42
2017-06-01T23:46:45.825Z,14.40
2017-06-01T23:49:14.068Z,11.98
2017-06-01T23:51:42.327Z,13.62
2017-06-01T23:54:10.560Z,14.42
2017-06-01T23:56:38.780Z,11.73
2017-06-01T23:59:07.001Z,10.58
